sensor_id;sensor_type;location;lat;lon;timestamp;pressure;altitude;pressure_sealevel;temperature;humidity
77120;BME280;66073;47.730;9.352;2023-08-06T00:02:03;96200.72;;;16.40;87.82
77120;BME280;66073;47.730;9.352;2023-08-06T00:04:28;96202.50;;;16.36;87.68
77120;BME280;66073;47.730;9.352;2023-08-06T00:06:54;96187.78;;;16.33;87.18
77120;BME280;66073;47.730;9.352;2023-08-06T00:09:19;96191.94;;;16.05;88.63
77120;BME280;66073;47.730;9.352;2023-08-06T00:11:45;96190.19;;;16.09;88.86
77120;BME280;66073;47.730;9.352;2023-08-06T00:14:12;96183.91;;;15.97;87.65
77120;BME280;66073;47.730;9.352;2023-08-06T00:16:42;96182.91;;;16.10;86.77
77120;BME280;66073;47.730;9.352;2023-08-06T00:19:07;96182.31;;;15.96;87.78
77120;BME280;66073;47.730;9.352;2023-08-06T00:21:33;96185.81;;;15.87;88.58
77120;BME280;66073;47.730;9.352;2023-08-06T00:23:58;96176.97;;;15.78;87.55
77120;BME280;66073;47.730;9.352;2023-08-06T00:26:24;96173.81;;;15.76;87.62
77120;BME280;66073;47.730;9.352;2023-08-06T00:28:49;96173.34;;;15.74;87.75
77120;BME280;66073;47.730;9.352;2023-08-06T00:31:15;96177.47;;;15.72;86.52
77120;BME280;66073;47.730;9.352;2023-08-06T00:33:40;96178.56;;;15.79;86.29
77120;BME280;66073;47.730;9.352;2023-08-06T00:36:06;96170.81;;;15.61;86.27
77120;BME280;66073;47.730;9.352;2023-08-06T00:38:31;96168.44;;;15.59;84.53
77120;BME280;66073;47.730;9.352;2023-08-06T00:40:57;96171.59;;;15.44;87.48
77120;BME280;66073;47.730;9.352;2023-08-06T00:43:22;96165.75;;;15.42;88.83
77120;BME280;66073;47.730;9.352;2023-08-06T00:45:48;96150.88;;;15.27;88.79
77120;BME280;66073;47.730;9.352;2023-08-06T00:48:14;96149.75;;;15.20;88.70
77120;BME280;66073;47.730;9.352;2023-08-06T00:50:40;96149.75;;;15.20;88.66
77120;BME280;66073;47.730;9.352;2023-08-06T00:53:06;96144.84;;;15.30;87.59
77120;BME280;66073;47.730;9.352;2023-08-06T00:55:32;96143.78;;;15.23;87.90
77120;BME280;66073;47.730;9.352;2023-08-06T00:57:58;96147.56;;;15.05;86.77
77120;BME280;66073;47.730;9.352;2023-08-06T01:00:26;96143.41;;;14.99;87.57
77120;BME280;66073;47.730;9.352;2023-08-06T01:02:53;96145.78;;;14.92;87.90
77120;BME280;66073;47.730;9.352;2023-08-06T01:05:20;96142.13;;;14.87;88.01
77120;BME280;66073;47.730;9.352;2023-08-06T01:10:40;96146.84;;;14.73;88.58
77120;BME280;66073;47.730;9.352;2023-08-06T01:15:59;96128.69;;;14.62;87.94
77120;BME280;66073;47.730;9.352;2023-08-06T01:18:26;96129.75;;;14.44;89.00
77120;BME280;66073;47.730;9.352;2023-08-06T01:20:51;96136.38;;;14.46;89.13
77120;BME280;66073;47.730;9.352;2023-08-06T01:23:18;96135.31;;;14.25;89.35
77120;BME280;66073;47.730;9.352;2023-08-06T01:28:30;96132.88;;;14.06;90.23
77120;BME280;66073;47.730;9.352;2023-08-06T01:31:02;96138.06;;;14.03;90.79
77120;BME280;66073;47.730;9.352;2023-08-06T01:33:32;96131.47;;;14.09;90.49
77120;BME280;66073;47.730;9.352;2023-08-06T01:36:01;96136.53;;;14.10;90.10
77120;BME280;66073;47.730;9.352;2023-08-06T01:38:27;96124.53;;;14.08;89.26
77120;BME280;66073;47.730;9.352;2023-08-06T01:40:53;96120.41;;;14.02;89.38
77120;BME280;66073;47.730;9.352;2023-08-06T01:43:19;96126.38;;;13.99;88.78
77120;BME280;66073;47.730;9.352;2023-08-06T01:45:44;96124.81;;;13.98;88.33
77120;BME280;66073;47.730;9.352;2023-08-06T01:48:10;96123.69;;;13.99;88.91
77120;BME280;66073;47.730;9.352;2023-08-06T01:50:35;96125.22;;;13.60;89.73
77120;BME280;66073;47.730;9.352;2023-08-06T01:53:01;96129.34;;;13.66;89.94
77120;BME280;66073;47.730;9.352;2023-08-06T01:55:26;96139.19;;;13.49;91.01
77120;BME280;66073;47.730;9.352;2023-08-06T01:57:51;96126.72;;;13.44;91.94
77120;BME280;66073;47.730;9.352;2023-08-06T02:00:17;96117.19;;;13.38;91.99
77120;BME280;66073;47.730;9.352;2023-08-06T02:02:42;96125.19;;;13.52;91.65
77120;BME280;66073;47.730;9.352;2023-08-06T02:05:08;96121.09;;;13.54;90.94
77120;BME280;66073;47.730;9.352;2023-08-06T02:07:33;96129.75;;;13.51;90.22
77120;BME280;66073;47.730;9.352;2023-08-06T02:09:59;96121.28;;;13.35;90.49
77120;BME280;66073;47.730;9.352;2023-08-06T02:12:24;96119.13;;;13.46;91.09
77120;BME280;66073;47.730;9.352;2023-08-06T02:14:49;96131.81;;;13.54;91.16
77120;BME280;66073;47.730;9.352;2023-08-06T02:17:15;96121.47;;;13.70;89.89
77120;BME280;66073;47.730;9.352;2023-08-06T02:19:40;96118.81;;;13.70;89.92
77120;BME280;66073;47.730;9.352;2023-08-06T02:22:08;96110.88;;;13.34;89.40
77120;BME280;66073;47.730;9.352;2023-08-06T02:24:33;96106.09;;;13.09;91.53
77120;BME280;66073;47.730;9.352;2023-08-06T02:26:59;96103.19;;;13.19;93.31
77120;BME280;66073;47.730;9.352;2023-08-06T02:29:24;96106.81;;;13.45;92.19
77120;BME280;66073;47.730;9.352;2023-08-06T02:31:50;96099.28;;;13.47;91.08
77120;BME280;66073;47.730;9.352;2023-08-06T02:34:15;96096.59;;;13.25;90.88
77120;BME280;66073;47.730;9.352;2023-08-06T02:36:41;96093.44;;;13.23;92.15
77120;BME280;66073;47.730;9.352;2023-08-06T02:39:06;96100.75;;;13.31;92.45
77120;BME280;66073;47.730;9.352;2023-08-06T02:41:32;96099.91;;;13.44;91.69
77120;BME280;66073;47.730;9.352;2023-08-06T02:43:57;96090.56;;;13.41;91.45
77120;BME280;66073;47.730;9.352;2023-08-06T02:46:23;96091.41;;;13.51;91.78
77120;BME280;66073;47.730;9.352;2023-08-06T02:48:48;96092.84;;;13.48;91.75
77120;BME280;66073;47.730;9.352;2023-08-06T02:51:14;96078.66;;;13.56;91.22
77120;BME280;66073;47.730;9.352;2023-08-06T02:53:39;96076.59;;;13.53;90.91
77120;BME280;66073;47.730;9.352;2023-08-06T02:56:05;96083.19;;;13.47;90.64
77120;BME280;66073;47.730;9.352;2023-08-06T02:58:30;96088.13;;;13.54;90.19
77120;BME280;66073;47.730;9.352;2023-08-06T03:01:00;96075.88;;;13.61;88.83
77120;BME280;66073;47.730;9.352;2023-08-06T03:03:28;96081.00;;;13.49;89.89
77120;BME280;66073;47.730;9.352;2023-08-06T03:05:54;96080.53;;;13.56;89.97
77120;BME280;66073;47.730;9.352;2023-08-06T03:08:19;96073.44;;;13.51;90.09
77120;BME280;66073;47.730;9.352;2023-08-06T03:10:48;96067.56;;;13.40;89.94
77120;BME280;66073;47.730;9.352;2023-08-06T03:13:14;96066.22;;;13.60;89.15
77120;BME280;66073;47.730;9.352;2023-08-06T03:15:39;96078.19;;;13.54;89.52
77120;BME280;66073;47.730;9.352;2023-08-06T03:18:05;96066.25;;;13.38;89.68
77120;BME280;66073;47.730;9.352;2023-08-06T03:20:32;96065.25;;;13.56;89.45
77120;BME280;66073;47.730;9.352;2023-08-06T03:22:57;96060.69;;;13.26;90.29
77120;BME280;66073;47.730;9.352;2023-08-06T03:25:23;96065.53;;;13.46;90.43
77120;BME280;66073;47.730;9.352;2023-08-06T03:27:48;96068.53;;;13.45;90.05
77120;BME280;66073;47.730;9.352;2023-08-06T03:30:14;96071.31;;;13.39;89.59
77120;BME280;66073;47.730;9.352;2023-08-06T03:32:39;96066.03;;;13.48;89.64
77120;BME280;66073;47.730;9.352;2023-08-06T03:35:05;96054.41;;;13.61;90.00
77120;BME280;66073;47.730;9.352;2023-08-06T03:37:30;96060.25;;;13.63;88.98
77120;BME280;66073;47.730;9.352;2023-08-06T03:39:56;96063.69;;;13.55;89.26
77120;BME280;66073;47.730;9.352;2023-08-06T03:42:21;96066.75;;;13.40;89.68
77120;BME280;66073;47.730;9.352;2023-08-06T03:44:47;96067.56;;;13.40;90.63
77120;BME280;66073;47.730;9.352;2023-08-06T03:47:13;96061.03;;;13.33;91.12
77120;BME280;66073;47.730;9.352;2023-08-06T03:49:38;96069.81;;;13.56;91.94
77120;BME280;66073;47.730;9.352;2023-08-06T03:52:05;96071.06;;;13.80;91.39
77120;BME280;66073;47.730;9.352;2023-08-06T03:54:30;96065.72;;;13.80;90.54
77120;BME280;66073;47.730;9.352;2023-08-06T03:56:56;96070.28;;;13.80;90.28
77120;BME280;66073;47.730;9.352;2023-08-06T03:59:21;96067.53;;;13.71;89.44
77120;BME280;66073;47.730;9.352;2023-08-06T04:01:47;96067.38;;;13.68;90.36
77120;BME280;66073;47.730;9.352;2023-08-06T04:04:12;96072.91;;;13.71;90.52
77120;BME280;66073;47.730;9.352;2023-08-06T04:06:38;96075.13;;;13.69;90.09
77120;BME280;66073;47.730;9.352;2023-08-06T04:09:03;96072.09;;;14.02;88.76
77120;BME280;66073;47.730;9.352;2023-08-06T04:11:28;96066.88;;;13.97;87.10
77120;BME280;66073;47.730;9.352;2023-08-06T04:13:54;96059.03;;;14.17;85.82
77120;BME280;66073;47.730;9.352;2023-08-06T04:16:21;96057.00;;;14.23;82.80
77120;BME280;66073;47.730;9.352;2023-08-06T04:18:46;96061.09;;;14.20;83.80
77120;BME280;66073;47.730;9.352;2023-08-06T04:21:12;96068.84;;;14.22;83.26
77120;BME280;66073;47.730;9.352;2023-08-06T04:23:37;96072.50;;;14.26;83.38
77120;BME280;66073;47.730;9.352;2023-08-06T04:26:03;96064.44;;;14.26;85.01
77120;BME280;66073;47.730;9.352;2023-08-06T04:28:28;96070.94;;;14.33;83.33
77120;BME280;66073;47.730;9.352;2023-08-06T04:30:54;96062.72;;;14.30;83.80
77120;BME280;66073;47.730;9.352;2023-08-06T04:33:20;96070.13;;;14.33;84.62
77120;BME280;66073;47.730;9.352;2023-08-06T04:35:46;96065.78;;;13.98;84.46
77120;BME280;66073;47.730;9.352;2023-08-06T04:38:11;96062.09;;;14.33;83.07
77120;BME280;66073;47.730;9.352;2023-08-06T04:40:36;96064.03;;;14.41;83.02
77120;BME280;66073;47.730;9.352;2023-08-06T04:43:02;96060.91;;;14.17;82.43
77120;BME280;66073;47.730;9.352;2023-08-06T04:45:28;96061.34;;;14.50;81.15
77120;BME280;66073;47.730;9.352;2023-08-06T04:47:53;96056.00;;;14.58;80.48
77120;BME280;66073;47.730;9.352;2023-08-06T04:50:21;96058.69;;;14.84;79.81
77120;BME280;66073;47.730;9.352;2023-08-06T04:52:47;96067.50;;;14.50;81.17
77120;BME280;66073;47.730;9.352;2023-08-06T04:55:12;96069.44;;;14.58;82.50
77120;BME280;66073;47.730;9.352;2023-08-06T04:57:38;96076.22;;;14.64;81.63
77120;BME280;66073;47.730;9.352;2023-08-06T05:00:04;96087.44;;;14.66;81.72
77120;BME280;66073;47.730;9.352;2023-08-06T05:02:30;96086.03;;;14.69;81.32
77120;BME280;66073;47.730;9.352;2023-08-06T05:04:58;96083.75;;;14.45;83.43
77120;BME280;66073;47.730;9.352;2023-08-06T05:07:23;96096.13;;;14.55;84.18
77120;BME280;66073;47.730;9.352;2023-08-06T05:09:49;96091.81;;;14.45;83.53
77120;BME280;66073;47.730;9.352;2023-08-06T05:12:14;96101.16;;;14.56;83.36
77120;BME280;66073;47.730;9.352;2023-08-06T05:14:40;96101.00;;;14.44;83.61
77120;BME280;66073;47.730;9.352;2023-08-06T05:17:05;96110.47;;;14.50;83.66
77120;BME280;66073;47.730;9.352;2023-08-06T05:19:31;96102.94;;;14.69;82.53
77120;BME280;66073;47.730;9.352;2023-08-06T05:21:56;96102.66;;;14.23;83.60
77120;BME280;66073;47.730;9.352;2023-08-06T05:24:21;96108.22;;;14.35;84.17
77120;BME280;66073;47.730;9.352;2023-08-06T05:26:47;96107.06;;;14.27;83.50
77120;BME280;66073;47.730;9.352;2023-08-06T05:29:13;96115.81;;;14.42;83.70
77120;BME280;66073;47.730;9.352;2023-08-06T05:31:38;96110.03;;;14.74;83.04
77120;BME280;66073;47.730;9.352;2023-08-06T05:34:04;96131.63;;;14.43;83.09
77120;BME280;66073;47.730;9.352;2023-08-06T05:36:29;96112.13;;;14.29;83.28
77120;BME280;66073;47.730;9.352;2023-08-06T05:38:55;96123.56;;;14.04;82.59
77120;BME280;66073;47.730;9.352;2023-08-06T05:41:20;96125.00;;;14.10;83.22
77120;BME280;66073;47.730;9.352;2023-08-06T05:43:46;96133.22;;;14.13;83.27
77120;BME280;66073;47.730;9.352;2023-08-06T05:46:11;96131.13;;;14.02;83.67
77120;BME280;66073;47.730;9.352;2023-08-06T05:48:37;96135.88;;;14.05;81.94
77120;BME280;66073;47.730;9.352;2023-08-06T05:51:02;96146.22;;;13.89;81.69
77120;BME280;66073;47.730;9.352;2023-08-06T05:53:27;96140.75;;;14.03;81.25
77120;BME280;66073;47.730;9.352;2023-08-06T05:55:53;96140.19;;;13.83;81.55
77120;BME280;66073;47.730;9.352;2023-08-06T05:58:18;96143.44;;;13.72;81.02
77120;BME280;66073;47.730;9.352;2023-08-06T06:00:45;96146.19;;;13.80;81.19
77120;BME280;66073;47.730;9.352;2023-08-06T06:03:11;96142.34;;;14.04;79.84
77120;BME280;66073;47.730;9.352;2023-08-06T06:05:39;96132.69;;;14.03;80.31
77120;BME280;66073;47.730;9.352;2023-08-06T06:08:05;96143.22;;;14.21;79.66
77120;BME280;66073;47.730;9.352;2023-08-06T06:10:30;96152.25;;;13.95;80.64
77120;BME280;66073;47.730;9.352;2023-08-06T06:12:56;96145.75;;;13.87;80.82
77120;BME280;66073;47.730;9.352;2023-08-06T06:15:21;96145.78;;;13.73;81.47
77120;BME280;66073;47.730;9.352;2023-08-06T06:17:47;96154.56;;;14.18;79.64
77120;BME280;66073;47.730;9.352;2023-08-06T06:20:12;96140.38;;;13.87;80.34
77120;BME280;66073;47.730;9.352;2023-08-06T06:22:38;96147.66;;;13.95;80.27
77120;BME280;66073;47.730;9.352;2023-08-06T06:25:04;96139.84;;;13.76;80.64
77120;BME280;66073;47.730;9.352;2023-08-06T06:27:29;96160.16;;;13.69;80.21
77120;BME280;66073;47.730;9.352;2023-08-06T06:29:55;96163.56;;;13.91;79.65
77120;BME280;66073;47.730;9.352;2023-08-06T06:32:21;96142.13;;;14.22;79.88
77120;BME280;66073;47.730;9.352;2023-08-06T06:34:46;96168.97;;;14.22;78.56
77120;BME280;66073;47.730;9.352;2023-08-06T06:37:12;96176.47;;;14.43;77.72
77120;BME280;66073;47.730;9.352;2023-08-06T06:39:37;96164.81;;;14.47;76.86
77120;BME280;66073;47.730;9.352;2023-08-06T06:42:03;96169.91;;;14.57;76.02
77120;BME280;66073;47.730;9.352;2023-08-06T06:44:28;96182.59;;;14.04;76.93
77120;BME280;66073;47.730;9.352;2023-08-06T06:46:54;96183.66;;;14.25;76.63
77120;BME280;66073;47.730;9.352;2023-08-06T06:49:19;96187.06;;;14.17;76.39
77120;BME280;66073;47.730;9.352;2023-08-06T06:51:45;96184.81;;;14.02;77.00
77120;BME280;66073;47.730;9.352;2023-08-06T06:54:10;96182.94;;;14.42;76.61
77120;BME280;66073;47.730;9.352;2023-08-06T06:56:36;96183.03;;;14.67;74.99
77120;BME280;66073;47.730;9.352;2023-08-06T06:59:02;96182.78;;;14.86;73.86
77120;BME280;66073;47.730;9.352;2023-08-06T07:01:27;96186.91;;;15.01;75.21
77120;BME280;66073;47.730;9.352;2023-08-06T07:03:53;96187.34;;;14.85;75.04
77120;BME280;66073;47.730;9.352;2023-08-06T07:06:18;96187.50;;;14.80;74.76
77120;BME280;66073;47.730;9.352;2023-08-06T07:08:45;96187.41;;;15.46;72.70
77120;BME280;66073;47.730;9.352;2023-08-06T07:11:10;96187.22;;;15.16;73.93
77120;BME280;66073;47.730;9.352;2023-08-06T07:13:36;96184.72;;;15.28;73.43
77120;BME280;66073;47.730;9.352;2023-08-06T07:16:02;96192.50;;;15.30;73.95
77120;BME280;66073;47.730;9.352;2023-08-06T07:18:27;96201.34;;;15.39;72.79
77120;BME280;66073;47.730;9.352;2023-08-06T07:20:54;96200.38;;;15.18;73.87
77120;BME280;66073;47.730;9.352;2023-08-06T07:23:21;96193.09;;;15.27;73.48
77120;BME280;66073;47.730;9.352;2023-08-06T07:25:47;96206.53;;;15.10;73.45
77120;BME280;66073;47.730;9.352;2023-08-06T07:28:13;96204.94;;;15.17;75.25
77120;BME280;66073;47.730;9.352;2023-08-06T07:30:40;96207.88;;;14.81;76.43
77120;BME280;66073;47.730;9.352;2023-08-06T07:33:06;96210.31;;;14.52;76.73
77120;BME280;66073;47.730;9.352;2023-08-06T07:35:32;96209.44;;;14.65;77.04
77120;BME280;66073;47.730;9.352;2023-08-06T07:37:57;96210.59;;;14.42;78.35
77120;BME280;66073;47.730;9.352;2023-08-06T07:40:23;96218.66;;;14.42;77.99
77120;BME280;66073;47.730;9.352;2023-08-06T07:42:48;96214.94;;;14.60;76.81
77120;BME280;66073;47.730;9.352;2023-08-06T07:45:14;96219.78;;;14.41;76.84
77120;BME280;66073;47.730;9.352;2023-08-06T07:47:39;96227.22;;;14.53;76.27
77120;BME280;66073;47.730;9.352;2023-08-06T07:50:05;96232.13;;;14.28;77.02
77120;BME280;66073;47.730;9.352;2023-08-06T07:52:31;96232.25;;;13.93;79.87
77120;BME280;66073;47.730;9.352;2023-08-06T07:54:56;96240.81;;;13.95;80.82
77120;BME280;66073;47.730;9.352;2023-08-06T07:57:22;96228.03;;;13.78;82.88
77120;BME280;66073;47.730;9.352;2023-08-06T07:59:47;96226.66;;;13.80;82.31
77120;BME280;66073;47.730;9.352;2023-08-06T08:02:13;96227.84;;;13.74;82.57
77120;BME280;66073;47.730;9.352;2023-08-06T08:04:38;96228.91;;;13.65;82.65
77120;BME280;66073;47.730;9.352;2023-08-06T08:07:04;96242.97;;;13.70;82.84
77120;BME280;66073;47.730;9.352;2023-08-06T08:09:29;96239.06;;;13.99;83.00
77120;BME280;66073;47.730;9.352;2023-08-06T08:11:55;96231.69;;;14.04;80.99
77120;BME280;66073;47.730;9.352;2023-08-06T08:14:20;96242.25;;;14.31;81.29
77120;BME280;66073;47.730;9.352;2023-08-06T08:16:46;96227.84;;;14.19;80.25
77120;BME280;66073;47.730;9.352;2023-08-06T08:19:11;96226.25;;;14.18;79.58
77120;BME280;66073;47.730;9.352;2023-08-06T08:21:37;96230.47;;;14.10;79.77
77120;BME280;66073;47.730;9.352;2023-08-06T08:24:04;96236.50;;;14.16;80.27
77120;BME280;66073;47.730;9.352;2023-08-06T08:26:29;96241.19;;;14.10;81.36
77120;BME280;66073;47.730;9.352;2023-08-06T08:28:56;96239.06;;;13.99;82.44
77120;BME280;66073;47.730;9.352;2023-08-06T08:31:22;96237.38;;;13.80;82.77
77120;BME280;66073;47.730;9.352;2023-08-06T08:33:47;96236.41;;;13.76;82.36
77120;BME280;66073;47.730;9.352;2023-08-06T08:36:13;96240.63;;;13.91;81.79
77120;BME280;66073;47.730;9.352;2023-08-06T08:38:38;96248.34;;;13.70;84.83
77120;BME280;66073;47.730;9.352;2023-08-06T08:41:04;96239.69;;;13.51;86.02
77120;BME280;66073;47.730;9.352;2023-08-06T08:43:30;96250.53;;;13.68;86.60
77120;BME280;66073;47.730;9.352;2023-08-06T08:45:57;96244.84;;;13.48;86.34
77120;BME280;66073;47.730;9.352;2023-08-06T08:48:26;96255.16;;;13.54;87.53
77120;BME280;66073;47.730;9.352;2023-08-06T08:50:53;96250.78;;;13.58;86.00
77120;BME280;66073;47.730;9.352;2023-08-06T08:53:18;96258.59;;;13.90;86.19
77120;BME280;66073;47.730;9.352;2023-08-06T08:55:47;96256.66;;;14.05;86.43
77120;BME280;66073;47.730;9.352;2023-08-06T08:58:14;96260.16;;;14.36;84.37
77120;BME280;66073;47.730;9.352;2023-08-06T09:00:45;96257.53;;;14.45;82.10
77120;BME280;66073;47.730;9.352;2023-08-06T09:03:12;96259.44;;;14.22;82.94
77120;BME280;66073;47.730;9.352;2023-08-06T09:05:44;96251.03;;;14.37;82.70
77120;BME280;66073;47.730;9.352;2023-08-06T09:08:12;96268.31;;;14.53;82.31
77120;BME280;66073;47.730;9.352;2023-08-06T09:10:43;96260.81;;;14.72;83.67
77120;BME280;66073;47.730;9.352;2023-08-06T09:13:09;96264.19;;;14.25;83.28
77120;BME280;66073;47.730;9.352;2023-08-06T09:15:34;96261.50;;;14.03;83.55
77120;BME280;66073;47.730;9.352;2023-08-06T09:18:00;96266.06;;;14.47;83.43
77120;BME280;66073;47.730;9.352;2023-08-06T09:20:34;96272.28;;;14.33;80.28
77120;BME280;66073;47.730;9.352;2023-08-06T09:23:07;96274.81;;;14.08;82.58
77120;BME280;66073;47.730;9.352;2023-08-06T09:25:32;96277.44;;;13.99;83.56
77120;BME280;66073;47.730;9.352;2023-08-06T09:27:58;96271.25;;;13.99;81.02
77120;BME280;66073;47.730;9.352;2023-08-06T09:30:32;96284.09;;;14.02;83.20
77120;BME280;66073;47.730;9.352;2023-08-06T09:32:58;96287.00;;;14.14;83.99
77120;BME280;66073;47.730;9.352;2023-08-06T09:35:24;96287.19;;;13.73;82.95
77120;BME280;66073;47.730;9.352;2023-08-06T09:37:49;96279.09;;;14.09;82.49
77120;BME280;66073;47.730;9.352;2023-08-06T09:42:49;96282.97;;;14.03;85.05
77120;BME280;66073;47.730;9.352;2023-08-06T09:45:16;96293.03;;;13.75;84.11
77120;BME280;66073;47.730;9.352;2023-08-06T09:47:41;96292.38;;;13.91;85.67
77120;BME280;66073;47.730;9.352;2023-08-06T09:50:15;96299.72;;;14.44;83.09
77120;BME280;66073;47.730;9.352;2023-08-06T09:52:42;96296.34;;;14.38;81.71
77120;BME280;66073;47.730;9.352;2023-08-06T09:55:11;96299.81;;;14.17;83.23
77120;BME280;66073;47.730;9.352;2023-08-06T09:57:38;96311.16;;;14.58;81.58
77120;BME280;66073;47.730;9.352;2023-08-06T10:00:04;96310.09;;;14.37;81.46
77120;BME280;66073;47.730;9.352;2023-08-06T10:02:32;96304.28;;;14.44;80.72
77120;BME280;66073;47.730;9.352;2023-08-06T10:04:59;96309.66;;;14.74;80.66
77120;BME280;66073;47.730;9.352;2023-08-06T10:07:25;96305.75;;;14.89;80.11
77120;BME280;66073;47.730;9.352;2023-08-06T10:09:52;96307.53;;;14.63;80.11
77120;BME280;66073;47.730;9.352;2023-08-06T10:12:19;96300.81;;;15.22;77.98
77120;BME280;66073;47.730;9.352;2023-08-06T10:14:46;96298.78;;;14.88;78.30
77120;BME280;66073;47.730;9.352;2023-08-06T10:17:13;96300.75;;;15.78;76.29
77120;BME280;66073;47.730;9.352;2023-08-06T10:19:39;96296.56;;;15.38;76.09
77120;BME280;66073;47.730;9.352;2023-08-06T10:22:15;96299.50;;;15.67;75.71
77120;BME280;66073;47.730;9.352;2023-08-06T10:24:49;96291.91;;;15.69;74.92
77120;BME280;66073;47.730;9.352;2023-08-06T10:27:20;96301.09;;;15.85;73.37
77120;BME280;66073;47.730;9.352;2023-08-06T10:29:47;96286.25;;;16.52;72.12
77120;BME280;66073;47.730;9.352;2023-08-06T10:32:13;96284.53;;;16.64;72.77
77120;BME280;66073;47.730;9.352;2023-08-06T10:34:59;96297.41;;;16.33;74.25
77120;BME280;66073;47.730;9.352;2023-08-06T10:37:37;96305.50;;;15.81;73.31
77120;BME280;66073;47.730;9.352;2023-08-06T10:40:06;96311.56;;;15.30;74.33
77120;BME280;66073;47.730;9.352;2023-08-06T10:42:32;96304.50;;;15.43;74.46
77120;BME280;66073;47.730;9.352;2023-08-06T10:47:40;96320.72;;;15.21;75.83
77120;BME280;66073;47.730;9.352;2023-08-06T10:50:16;96309.72;;;15.39;75.15
77120;BME280;66073;47.730;9.352;2023-08-06T10:52:46;96313.28;;;15.18;76.31
77120;BME280;66073;47.730;9.352;2023-08-06T10:55:25;96306.44;;;15.03;78.57
77120;BME280;66073;47.730;9.352;2023-08-06T10:57:51;96306.84;;;15.45;78.54
77120;BME280;66073;47.730;9.352;2023-08-06T11:00:17;96306.03;;;15.27;76.65
77120;BME280;66073;47.730;9.352;2023-08-06T11:02:43;96298.59;;;16.70;73.79
77120;BME280;66073;47.730;9.352;2023-08-06T11:05:11;96288.78;;;16.48;71.51
77120;BME280;66073;47.730;9.352;2023-08-06T11:07:37;96302.25;;;16.48;72.51
77120;BME280;66073;47.730;9.352;2023-08-06T11:10:09;96300.25;;;16.36;72.65
77120;BME280;66073;47.730;9.352;2023-08-06T11:12:36;96309.25;;;16.49;71.26
77120;BME280;66073;47.730;9.352;2023-08-06T11:15:03;96300.84;;;16.51;69.37
77120;BME280;66073;47.730;9.352;2023-08-06T11:17:31;96301.19;;;16.96;67.09
77120;BME280;66073;47.730;9.352;2023-08-06T11:20:02;96300.78;;;16.85;66.67
77120;BME280;66073;47.730;9.352;2023-08-06T11:22:28;96295.53;;;16.89;66.58
77120;BME280;66073;47.730;9.352;2023-08-06T11:24:54;96304.94;;;17.12;67.53
77120;BME280;66073;47.730;9.352;2023-08-06T11:27:20;96299.91;;;18.02;65.40
77120;BME280;66073;47.730;9.352;2023-08-06T11:29:45;96300.00;;;17.43;65.45
77120;BME280;66073;47.730;9.352;2023-08-06T11:32:11;96314.88;;;17.58;65.48
77120;BME280;66073;47.730;9.352;2023-08-06T11:34:38;96302.59;;;17.02;65.10
77120;BME280;66073;47.730;9.352;2023-08-06T11:37:04;96300.38;;;16.57;65.94
77120;BME280;66073;47.730;9.352;2023-08-06T11:39:34;96329.50;;;17.19;65.96
77120;BME280;66073;47.730;9.352;2023-08-06T11:42:03;96309.91;;;17.01;66.89
77120;BME280;66073;47.730;9.352;2023-08-06T11:44:35;96311.53;;;17.52;65.84
77120;BME280;66073;47.730;9.352;2023-08-06T11:47:02;96315.09;;;17.15;66.60
77120;BME280;66073;47.730;9.352;2023-08-06T11:49:49;96313.84;;;16.57;65.23
77120;BME280;66073;47.730;9.352;2023-08-06T11:52:19;96326.88;;;16.29;66.59
77120;BME280;66073;47.730;9.352;2023-08-06T11:55:07;96326.88;;;17.31;62.99
77120;BME280;66073;47.730;9.352;2023-08-06T11:57:34;96330.41;;;17.52;61.38
77120;BME280;66073;47.730;9.352;2023-08-06T12:00:04;96324.03;;;17.65;61.57
77120;BME280;66073;47.730;9.352;2023-08-06T12:02:33;96335.44;;;17.04;62.64
77120;BME280;66073;47.730;9.352;2023-08-06T12:05:31;96364.22;;;17.29;62.60
77120;BME280;66073;47.730;9.352;2023-08-06T12:08:01;96339.34;;;17.15;63.33
77120;BME280;66073;47.730;9.352;2023-08-06T12:10:29;96328.16;;;16.96;61.75
77120;BME280;66073;47.730;9.352;2023-08-06T12:12:55;96333.44;;;17.59;60.23
77120;BME280;66073;47.730;9.352;2023-08-06T12:15:22;96339.31;;;17.61;60.54
77120;BME280;66073;47.730;9.352;2023-08-06T12:17:47;96363.97;;;17.43;60.27
77120;BME280;66073;47.730;9.352;2023-08-06T12:20:13;96322.53;;;17.47;59.89
77120;BME280;66073;47.730;9.352;2023-08-06T12:22:39;96370.50;;;16.95;62.62
77120;BME280;66073;47.730;9.352;2023-08-06T12:25:09;96338.34;;;16.90;62.63
77120;BME280;66073;47.730;9.352;2023-08-06T12:27:42;96337.09;;;17.25;61.20
77120;BME280;66073;47.730;9.352;2023-08-06T12:30:09;96334.59;;;17.41;61.51
77120;BME280;66073;47.730;9.352;2023-08-06T12:32:35;96340.25;;;16.90;65.65
77120;BME280;66073;47.730;9.352;2023-08-06T12:35:01;96342.22;;;16.63;65.56
77120;BME280;66073;47.730;9.352;2023-08-06T12:37:27;96345.78;;;17.31;64.00
77120;BME280;66073;47.730;9.352;2023-08-06T12:39:53;96347.59;;;16.46;65.87
77120;BME280;66073;47.730;9.352;2023-08-06T12:42:18;96351.09;;;16.72;64.21
77120;BME280;66073;47.730;9.352;2023-08-06T12:44:44;96355.38;;;16.39;64.75
77120;BME280;66073;47.730;9.352;2023-08-06T12:47:10;96352.69;;;16.30;64.12
77120;BME280;66073;47.730;9.352;2023-08-06T12:49:35;96361.72;;;16.09;65.16
77120;BME280;66073;47.730;9.352;2023-08-06T12:52:02;96362.34;;;16.06;64.60
77120;BME280;66073;47.730;9.352;2023-08-06T12:54:30;96353.97;;;15.99;65.25
77120;BME280;66073;47.730;9.352;2023-08-06T12:57:01;96351.75;;;16.18;64.64
77120;BME280;66073;47.730;9.352;2023-08-06T12:59:26;96362.81;;;15.73;66.63
77120;BME280;66073;47.730;9.352;2023-08-06T13:01:52;96361.88;;;15.86;65.20
77120;BME280;66073;47.730;9.352;2023-08-06T13:04:17;96365.69;;;15.85;65.58
77120;BME280;66073;47.730;9.352;2023-08-06T13:06:42;96370.09;;;15.81;66.71
77120;BME280;66073;47.730;9.352;2023-08-06T13:09:10;96381.16;;;15.71;66.17
77120;BME280;66073;47.730;9.352;2023-08-06T13:11:37;96378.19;;;15.99;65.34